createdAt,value
2023-05-04T00:05:13.100Z,80.56
2023-05-04T00:06:14.022Z,80.70
2023-05-04T00:07:13.978Z,80.56
2023-05-04T00:08:13.941Z,80.66
2023-05-04T00:09:13.946Z,80.60
2023-05-04T00:10:13.920Z,80.46
2023-05-04T00:11:13.897Z,80.49
2023-05-04T00:12:13.926Z,80.80
2023-05-04T00:13:13.945Z,81.01
2023-05-04T00:14:13.967Z,80.90
2023-05-04T00:15:13.861Z,81.11
2023-05-04T00:16:13.915Z,81.21
2023-05-04T00:17:13.857Z,81.32
2023-05-04T00:18:13.884Z,81.32
2023-05-04T00:19:13.848Z,81.67
2023-05-04T00:20:13.828Z,81.46
2023-05-04T00:21:13.823Z,81.87
2023-05-04T00:22:13.782Z,82.08
2023-05-04T00:23:13.836Z,82.29
2023-05-04T00:24:13.816Z,82.60
2023-05-04T00:25:13.737Z,82.90
2023-05-04T00:26:13.754Z,83.05
2023-05-04T00:27:13.835Z,83.05
2023-05-04T00:28:13.767Z,83.05
2023-05-04T00:29:13.714Z,83.67
2023-05-04T00:30:13.718Z,83.67
2023-05-04T00:31:13.698Z,83.87
2023-05-04T00:32:13.671Z,83.98
2023-05-04T00:33:13.716Z,84.33
2023-05-04T00:34:13.762Z,84.22
2023-05-04T00:35:13.654Z,84.33
2023-05-04T00:36:13.633Z,84.64
2023-05-04T00:37:13.750Z,84.08
2023-05-04T00:38:13.715Z,84.08
2023-05-04T00:39:13.599Z,84.29
2023-05-04T00:40:13.626Z,84.39
2023-05-04T00:41:13.577Z,83.87
2023-05-04T00:42:13.589Z,83.67
2023-05-04T00:43:13.596Z,83.77
2023-05-04T00:44:13.549Z,83.67
2023-05-04T00:45:13.574Z,83.56
2023-05-04T00:46:13.532Z,83.56
2023-05-04T00:47:13.607Z,83.56
2023-05-04T00:48:13.573Z,83.56
2023-05-04T00:49:13.516Z,83.56
2023-05-04T00:50:13.522Z,83.46
2023-05-04T00:51:13.498Z,83.71
2023-05-04T00:52:13.495Z,83.71
2023-05-04T00:53:13.476Z,84.01
2023-05-04T00:54:13.466Z,84.33
2023-05-04T00:55:13.488Z,84.64
2023-05-04T00:56:13.429Z,84.95
2023-05-04T00:57:13.413Z,84.74
2023-05-04T00:58:13.433Z,84.84
2023-05-04T00:59:13.420Z,85.16
2023-05-04T01:00:13.438Z,85.26
2023-05-04T01:01:13.404Z,85.50
2023-05-04T01:02:13.382Z,85.50
2023-05-04T01:03:13.454Z,85.92
2023-05-04T01:04:13.383Z,86.02
2023-05-04T01:05:13.334Z,85.92
2023-05-04T01:06:13.326Z,86.02
2023-05-04T01:07:13.458Z,86.33
2023-05-04T01:08:13.324Z,86.23
2023-05-04T01:09:13.327Z,86.54
2023-05-04T01:10:13.294Z,86.54
2023-05-04T01:11:13.306Z,86.85
2023-05-04T01:12:13.366Z,86.75
2023-05-04T01:13:13.371Z,87.37
2023-05-04T01:14:13.301Z,86.96
2023-05-04T01:15:13.282Z,87.72
2023-05-04T01:16:13.286Z,87.30
2023-05-04T01:17:13.271Z,87.62
2023-05-04T01:18:13.272Z,87.72
2023-05-04T01:19:13.204Z,87.62
2023-05-04T01:20:13.176Z,87.72
2023-05-04T01:21:13.190Z,87.57
2023-05-04T01:22:13.229Z,87.06
2023-05-04T01:23:13.265Z,86.75
2023-05-04T01:24:13.154Z,86.75
2023-05-04T01:25:13.185Z,86.54
2023-05-04T01:26:13.190Z,86.54
2023-05-04T01:27:13.135Z,86.54
2023-05-04T01:28:13.091Z,86.33
2023-05-04T01:29:13.123Z,86.75
2023-05-04T01:30:13.088Z,86.96
2023-05-04T01:31:13.109Z,86.65
2023-05-04T01:32:13.063Z,86.75
2023-05-04T01:33:13.066Z,86.54
2023-05-04T01:34:13.156Z,86.85
2023-05-04T01:35:13.052Z,87.16
2023-05-04T01:36:13.020Z,87.06
2023-05-04T01:37:13.043Z,87.16
2023-05-04T01:38:13.018Z,87.06
2023-05-04T01:39:13.035Z,87.06
2023-05-04T01:40:12.970Z,87.27
2023-05-04T01:41:12.982Z,87.27
2023-05-04T01:42:12.959Z,87.37
2023-05-04T01:43:12.964Z,87.57
2023-05-04T01:44:12.952Z,87.37
2023-05-04T01:45:12.957Z,87.57
2023-05-04T01:46:12.944Z,87.68
2023-05-04T01:47:12.914Z,87.99
2023-05-04T01:48:12.936Z,87.68
2023-05-04T01:49:12.882Z,87.57
2023-05-04T01:50:12.972Z,87.62
2023-05-04T01:51:12.867Z,87.72
2023-05-04T01:52:12.875Z,87.47
2023-05-04T01:53:12.834Z,87.72
2023-05-04T01:54:12.829Z,87.41
2023-05-04T01:55:12.899Z,87.93
2023-05-04T01:56:12.818Z,88.03
2023-05-04T01:57:12.806Z,88.45
2023-05-04T01:58:12.790Z,88.55
2023-05-04T01:59:12.819Z,88.65
2023-05-04T02:00:12.774Z,88.90
2023-05-04T02:01:12.814Z,89.21
2023-05-04T02:02:12.800Z,89.11
2023-05-04T02:03:12.806Z,89.62
2023-05-04T02:04:12.862Z,89.94
2023-05-04T02:05:12.725Z,90.08
2023-05-04T02:06:12.729Z,90.19
2023-05-04T02:07:12.803Z,90.81
2023-05-04T02:08:12.694Z,91.12
2023-05-04T02:09:12.841Z,91.22
2023-05-04T02:10:12.931Z,91.74
2023-05-04T02:11:12.662Z,91.22
2023-05-04T02:12:12.678Z,91.33
2023-05-04T02:13:12.799Z,91.33
2023-05-04T02:14:12.667Z,91.02
2023-05-04T02:15:12.633Z,90.91
2023-05-04T02:16:12.656Z,90.77
2023-05-04T02:17:12.605Z,90.66
2023-05-04T02:18:12.686Z,90.45
2023-05-04T02:19:12.666Z,90.35
2023-05-04T02:20:12.564Z,90.14
2023-05-04T02:21:12.554Z,89.73
2023-05-04T02:22:12.576Z,90.04
2023-05-04T02:23:12.542Z,89.94
2023-05-04T02:24:12.593Z,90.04
2023-05-04T02:25:12.559Z,89.83
2023-05-04T02:26:12.588Z,89.48
2023-05-04T02:27:12.506Z,89.58
2023-05-04T02:28:12.528Z,89.38
2023-05-04T02:29:12.530Z,89.58
2023-05-04T02:30:12.467Z,89.17
2023-05-04T02:31:12.479Z,89.17
2023-05-04T02:32:12.500Z,88.86
2023-05-04T02:33:12.478Z,88.76
2023-05-04T02:34:12.443Z,88.76
2023-05-04T02:35:12.418Z,88.65
2023-05-04T02:36:12.421Z,88.65
2023-05-04T02:37:12.477Z,88.76
2023-05-04T02:38:12.419Z,88.86
2023-05-04T02:39:12.379Z,88.65
2023-05-04T02:40:12.467Z,88.61
2023-05-04T02:41:12.458Z,88.09
2023-05-04T02:42:12.375Z,87.99
2023-05-04T02:43:12.356Z,87.88
2023-05-04T02:44:12.350Z,87.99
2023-05-04T02:45:12.329Z,87.99
2023-05-04T02:46:12.338Z,87.99
2023-05-04T02:47:12.300Z,88.09
2023-05-04T02:48:12.315Z,87.78
2023-05-04T02:49:12.282Z,87.88
2023-05-04T02:50:12.316Z,87.68
2023-05-04T02:51:12.255Z,87.88
2023-05-04T02:52:12.242Z,87.68
2023-05-04T02:53:12.416Z,87.78
2023-05-04T02:54:12.333Z,87.57
2023-05-04T02:55:12.264Z,87.78
2023-05-04T02:56:12.200Z,87.68
2023-05-04T02:57:12.201Z,87.57
2023-05-04T02:58:12.168Z,87.43
2023-05-04T02:59:12.197Z,87.43
2023-05-04T03:00:12.182Z,87.23
2023-05-04T03:01:12.206Z,87.12
2023-05-04T03:02:12.189Z,87.12
2023-05-04T03:03:12.137Z,86.91
2023-05-04T03:04:12.151Z,86.81
2023-05-04T03:05:12.176Z,86.71
2023-05-04T03:06:12.260Z,86.50
2023-05-04T03:07:12.222Z,86.19
2023-05-04T03:08:12.044Z,86.09
2023-05-04T03:09:12.054Z,86.05
2023-05-04T03:10:12.069Z,86.29
2023-05-04T03:11:12.112Z,86.60
2023-05-04T03:12:12.060Z,87.02
2023-05-04T03:13:12.116Z,87.33
2023-05-04T03:14:11.958Z,87.57
2023-05-04T03:15:12.011Z,87.78
2023-05-04T03:16:12.054Z,88.20
2023-05-04T03:17:12.030Z,88.09
2023-05-04T03:18:11.975Z,88.34
2023-05-04T03:19:11.928Z,88.45
2023-05-04T03:20:11.926Z,88.34
2023-05-04T03:21:11.902Z,88.45
2023-05-04T03:22:12.055Z,88.65
2023-05-04T03:23:18.948Z,88.45
2023-05-04T03:24:11.879Z,88.45
2023-05-04T03:25:11.903Z,88.45
2023-05-04T03:26:11.926Z,88.55
2023-05-04T03:27:11.838Z,88.55
2023-05-04T03:28:11.832Z,88.55
2023-05-04T03:29:11.852Z,88.65
2023-05-04T03:30:11.850Z,88.45
2023-05-04T03:31:11.798Z,88.55
2023-05-04T03:32:11.886Z,88.45
2023-05-04T03:33:11.814Z,88.65
2023-05-04T03:34:11.784Z,88.65
2023-05-04T03:35:11.802Z,88.55
2023-05-04T03:36:11.757Z,88.65
2023-05-04T03:37:11.742Z,88.65
2023-05-04T03:38:11.734Z,88.65
2023-05-04T03:39:11.733Z,88.86
2023-05-04T03:40:11.735Z,88.96
2023-05-04T03:41:11.706Z,89.07
2023-05-04T03:42:11.705Z,89.07
2023-05-04T03:43:11.678Z,89.07
2023-05-04T03:44:11.694Z,89.07
2023-05-04T03:45:11.711Z,89.38
2023-05-04T03:46:11.743Z,89.38
2023-05-04T03:47:11.641Z,89.17
2023-05-04T03:48:11.832Z,89.07
2023-05-04T03:49:11.635Z,88.96
2023-05-04T03:50:11.661Z,88.96
2023-05-04T03:51:11.616Z,88.86
2023-05-04T03:52:11.591Z,89.07
2023-05-04T03:53:11.638Z,89.28
2023-05-04T03:54:11.578Z,89.48
2023-05-04T03:55:11.596Z,89.38
2023-05-04T03:56:11.562Z,89.48
2023-05-04T03:57:11.544Z,89.28
2023-05-04T03:58:11.530Z,89.58
2023-05-04T03:59:11.530Z,89.73
2023-05-04T04:00:11.555Z,89.58
2023-05-04T04:01:11.561Z,89.58
2023-05-04T04:02:11.735Z,89.38
2023-05-04T04:03:11.690Z,89.48
2023-05-04T04:04:11.513Z,89.38
2023-05-04T04:05:11.486Z,89.17
2023-05-04T04:06:11.455Z,89.28
2023-05-04T04:07:11.436Z,89.17
2023-05-04T04:08:11.446Z,88.86
2023-05-04T04:09:11.422Z,88.76
2023-05-04T04:10:11.496Z,88.55
2023-05-04T04:11:11.392Z,88.51
2023-05-04T04:12:11.384Z,88.40
2023-05-04T04:13:11.435Z,88.51
2023-05-04T04:14:11.386Z,88.40
2023-05-04T04:15:11.387Z,88.40
2023-05-04T04:16:11.397Z,88.51
2023-05-04T04:17:11.342Z,88.30
2023-05-04T04:18:11.346Z,88.20
2023-05-04T04:19:11.333Z,88.09
2023-05-04T04:20:11.303Z,87.88
2023-05-04T04:21:11.285Z,87.64
2023-05-04T04:22:11.283Z,87.54
2023-05-04T04:23:11.310Z,87.33
2023-05-04T04:24:11.310Z,87.12
2023-05-04T04:25:11.327Z,86.91
2023-05-04T04:26:11.239Z,86.81
2023-05-04T04:27:11.234Z,86.60
2023-05-04T04:28:11.245Z,86.40
2023-05-04T04:29:11.228Z,86.15
2023-05-04T04:30:11.248Z,85.84
2023-05-04T04:31:11.218Z,85.74
2023-05-04T04:32:11.181Z,85.63
2023-05-04T04:33:11.859Z,85.63
2023-05-04T04:34:11.218Z,85.39
2023-05-04T04:35:11.182Z,85.28
2023-05-04T04:36:11.161Z,85.18
2023-05-04T04:37:11.168Z,84.97
2023-05-04T04:38:11.130Z,84.77
2023-05-04T04:39:11.142Z,84.77
2023-05-04T04:40:11.169Z,84.45
2023-05-04T04:41:11.095Z,84.45
2023-05-04T04:42:11.086Z,84.52
2023-05-04T04:43:11.072Z,83.90
2023-05-04T04:44:11.700Z,83.45
2023-05-04T04:45:11.140Z,83.25
2023-05-04T04:46:11.129Z,82.93
2023-05-04T04:47:11.023Z,82.93
2023-05-04T04:48:11.192Z,82.73
2023-05-04T04:49:11.027Z,82.93
2023-05-04T04:50:11.029Z,82.42
2023-05-04T04:51:10.985Z,82.42
2023-05-04T04:52:12.292Z,82.07
2023-05-04T04:53:10.969Z,82.07
2023-05-04T04:54:10.980Z,82.17
2023-05-04T04:55:10.971Z,82.07
2023-05-04T04:56:10.954Z,82.28
2023-05-04T04:57:10.933Z,82.69
2023-05-04T04:58:10.926Z,82.59
2023-05-04T04:59:10.910Z,82.83
2023-05-04T05:00:10.940Z,83.34
2023-05-04T05:01:10.928Z,83.14
2023-05-04T05:02:10.923Z,83.25
2023-05-04T05:03:10.930Z,83.20
2023-05-04T05:04:10.871Z,83.31
2023-05-04T05:05:10.952Z,82.69
2023-05-04T05:06:10.834Z,82.69
2023-05-04T05:07:10.841Z,82.28
2023-05-04T05:08:10.809Z,82.14
2023-05-04T05:09:10.825Z,81.51
2023-05-04T05:10:10.847Z,81.27
2023-05-04T05:11:10.805Z,80.76
2023-05-04T05:12:10.786Z,80.10
2023-05-04T05:13:10.787Z,79.58
2023-05-04T05:14:10.764Z,79.14
2023-05-04T05:15:10.829Z,78.69
2023-05-04T05:16:10.765Z,78.28
2023-05-04T05:17:10.721Z,77.83
2023-05-04T05:18:10.741Z,77.07
2023-05-04T05:19:10.723Z,75.63
2023-05-04T05:20:10.775Z,76.01
2023-05-04T05:21:10.684Z,75.04
2023-05-04T05:22:10.682Z,74.33
2023-05-04T05:23:10.667Z,74.22
2023-05-04T05:24:10.659Z,74.43
2023-05-04T05:25:10.683Z,74.40
2023-05-04T05:26:10.636Z,74.50
2023-05-04T05:27:10.627Z,74.19
2023-05-04T05:28:10.626Z,74.70
2023-05-04T05:29:10.632Z,74.29
2023-05-04T05:30:10.626Z,75.12
2023-05-04T05:31:10.632Z,74.36
2023-05-04T05:32:10.580Z,74.08
2023-05-04T05:33:10.631Z,74.19
2023-05-04T05:34:10.579Z,73.91
2023-05-04T05:35:10.563Z,73.68
2023-05-04T05:36:10.528Z,73.57
2023-05-04T05:37:10.533Z,73.78
2023-05-04T05:38:10.503Z,74.08
2023-05-04T05:39:10.502Z,73.98
2023-05-04T05:40:10.526Z,73.47
2023-05-04T05:41:10.468Z,73.27
2023-05-04T05:42:10.467Z,72.92
2023-05-04T05:43:10.467Z,73.13
2023-05-04T05:44:12.427Z,72.89
2023-05-04T05:45:10.545Z,73.13
2023-05-04T05:46:10.453Z,73.71
2023-05-04T05:47:10.406Z,73.54
2023-05-04T05:48:10.432Z,73.54
2023-05-04T05:49:10.405Z,74.26
2023-05-04T05:50:10.459Z,74.15
2023-05-04T05:51:10.364Z,74.05
2023-05-04T05:52:10.375Z,73.44
2023-05-04T05:53:10.345Z,74.60
2023-05-04T05:54:10.353Z,74.08
2023-05-04T05:55:10.356Z,74.60
2023-05-04T05:56:10.327Z,74.19
2023-05-04T05:57:10.310Z,74.19
2023-05-04T05:58:10.336Z,74.50
2023-05-04T05:59:10.296Z,74.19
2023-05-04T06:00:10.311Z,73.98
2023-05-04T06:01:10.278Z,74.26
2023-05-04T06:02:10.313Z,74.15
2023-05-04T06:03:10.383Z,74.77
2023-05-04T06:04:10.424Z,74.22
2023-05-04T06:05:10.308Z,73.61
2023-05-04T06:06:10.220Z,74.08
2023-05-04T06:07:10.215Z,72.65
2023-05-04T06:08:10.196Z,72.41
2023-05-04T06:09:10.200Z,72.72
2023-05-04T06:10:10.263Z,71.80
2023-05-04T06:11:10.169Z,72.00
2023-05-04T06:12:10.155Z,71.90
2023-05-04T06:13:10.184Z,71.59
2023-05-04T06:14:10.157Z,70.43
2023-05-04T06:15:10.147Z,71.86
2023-05-04T06:16:10.169Z,70.32
2023-05-04T06:17:10.106Z,71.04
2023-05-04T06:18:10.130Z,70.97
2023-05-04T06:19:10.110Z,70.05
2023-05-04T06:20:10.113Z,70.32
2023-05-04T06:21:10.074Z,70.87
2023-05-04T06:22:10.062Z,70.32
2023-05-04T06:23:10.050Z,69.92
2023-05-04T06:24:10.058Z,70.53
2023-05-04T06:25:10.086Z,70.94
2023-05-04T06:26:10.011Z,71.15
2023-05-04T06:27:10.017Z,70.73
2023-05-04T06:28:10.006Z,70.73
2023-05-04T06:29:10.026Z,70.91
2023-05-04T06:30:09.989Z,70.67
2023-05-04T06:31:10.016Z,68.32
2023-05-04T06:32:10.067Z,67.70
2023-05-04T06:33:09.990Z,68.62
2023-05-04T06:34:09.952Z,67.90
2023-05-04T06:35:09.914Z,68.21
2023-05-04T06:36:09.948Z,68.49
2023-05-04T06:37:09.922Z,67.67
2023-05-04T06:38:09.902Z,68.11
2023-05-04T06:39:09.890Z,68.69
2023-05-04T06:40:10.151Z,68.49
2023-05-04T06:41:09.957Z,67.77
2023-05-04T06:42:09.860Z,67.57
2023-05-04T06:43:09.847Z,67.90
2023-05-04T06:44:09.840Z,68.01
2023-05-04T06:45:09.806Z,68.52
2023-05-04T06:46:09.843Z,67.77
2023-05-04T06:47:09.788Z,67.67
2023-05-04T06:48:09.826Z,68.35
2023-05-04T06:49:09.778Z,66.92
2023-05-04T06:50:09.773Z,67.36
2023-05-04T06:51:09.781Z,67.84
2023-05-04T06:52:09.806Z,66.31
2023-05-04T06:53:09.731Z,67.13
2023-05-04T06:54:09.730Z,68.15
2023-05-04T06:55:09.716Z,67.19
2023-05-04T06:56:09.734Z,66.96
2023-05-04T06:57:09.685Z,66.14
2023-05-04T06:58:09.692Z,65.50
2023-05-04T06:59:09.680Z,64.68
2023-05-04T07:00:09.741Z,64.86
2023-05-04T07:01:09.738Z,65.26
2023-05-04T07:02:09.655Z,64.31
2023-05-04T07:03:09.688Z,63.93
2023-05-04T07:04:09.894Z,63.26
2023-05-04T07:05:09.647Z,64.15
2023-05-04T07:06:09.605Z,62.49
2023-05-04T07:07:09.598Z,62.62
2023-05-04T07:08:09.610Z,63.13
2023-05-04T07:09:09.579Z,62.32
2023-05-04T07:10:09.634Z,62.42
2023-05-04T07:11:09.569Z,64.63
2023-05-04T07:12:09.541Z,61.61
2023-05-04T07:13:09.585Z,61.00
2023-05-04T07:14:10.542Z,59.75
2023-05-04T07:15:09.569Z,59.12
2023-05-04T07:16:09.522Z,59.55
2023-05-04T07:17:09.511Z,59.25
2023-05-04T07:18:09.554Z,59.83
2023-05-04T07:19:09.500Z,58.78
2023-05-04T07:20:09.534Z,59.19
2023-05-04T07:21:26.167Z,58.07
2023-05-04T07:22:09.450Z,57.36
2023-05-04T07:23:09.410Z,58.15
2023-05-04T07:24:09.436Z,57.15
2023-05-04T07:25:09.432Z,55.05
2023-05-04T07:26:09.405Z,56.67
2023-05-04T07:27:09.385Z,56.34
2023-05-04T07:28:09.370Z,55.10
2023-05-04T07:29:09.380Z,56.29
2023-05-04T07:30:09.426Z,54.97
2023-05-04T07:31:09.337Z,55.25
2023-05-04T07:32:09.458Z,53.04
2023-05-04T07:33:09.346Z,54.53
2023-05-04T07:34:09.335Z,53.67
2023-05-04T07:55:15.936Z,48.13
2023-05-04T07:56:16.885Z,47.95
2023-05-04T07:57:16.923Z,48.35
2023-05-04T07:58:16.952Z,48.65
2023-05-04T07:59:16.873Z,49.01
2023-05-04T08:00:16.860Z,50.01
2023-05-04T08:01:16.888Z,48.78
2023-05-04T08:02:16.860Z,48.70
2023-05-04T08:03:16.910Z,48.39
2023-05-04T08:04:16.822Z,50.47
2023-05-04T08:05:16.805Z,48.05
2023-05-04T08:06:16.866Z,48.30
2023-05-04T08:07:16.968Z,46.67
2023-05-04T08:08:16.790Z,46.75
2023-05-04T08:09:16.824Z,46.09
2023-05-04T08:10:16.772Z,48.39
2023-05-04T08:11:20.719Z,50.64
2023-05-04T08:12:16.787Z,50.21
2023-05-04T08:13:16.891Z,49.56
2023-05-04T08:14:16.724Z,48.73
2023-05-04T08:15:16.702Z,48.85
2023-05-04T08:16:16.730Z,48.05
2023-05-04T08:17:16.758Z,48.61
2023-05-04T08:18:16.665Z,48.00
2023-05-04T08:19:16.696Z,47.75
2023-05-04T08:20:16.659Z,47.94
2023-05-04T08:21:16.705Z,46.34
2023-05-04T08:22:16.704Z,45.12
2023-05-04T08:23:16.621Z,45.67
2023-05-04T08:24:16.618Z,44.77
2023-05-04T08:25:16.625Z,45.23
2023-05-04T08:26:16.619Z,45.17
2023-05-04T08:27:16.640Z,42.40
2023-05-04T08:28:16.591Z,43.74
2023-05-04T08:29:16.632Z,44.45
2023-05-04T08:30:16.555Z,45.21
2023-05-04T08:31:16.632Z,43.52
2023-05-04T08:32:16.595Z,45.98
2023-05-04T08:33:16.575Z,45.17
2023-05-04T08:34:16.586Z,47.71
2023-05-04T08:35:16.503Z,45.98
2023-05-04T08:36:16.525Z,45.45
2023-05-04T08:37:16.476Z,45.86
2023-05-04T08:38:16.506Z,46.48
2023-05-04T08:39:17.243Z,45.79
2023-05-04T08:40:16.435Z,46.25
2023-05-04T08:41:16.467Z,47.07
2023-05-04T08:42:16.426Z,47.67
2023-05-04T08:43:16.441Z,47.66
2023-05-04T08:44:16.416Z,47.58
2023-05-04T08:45:16.472Z,47.15
2023-05-04T08:46:16.495Z,46.02
2023-05-04T08:47:16.368Z,47.05
2023-05-04T08:48:16.351Z,46.67
2023-05-04T08:49:16.392Z,47.25
2023-05-04T08:50:16.378Z,47.19
2023-05-04T08:51:16.339Z,44.00
2023-05-04T08:52:16.304Z,44.43
2023-05-04T08:53:16.305Z,44.81
2023-05-04T08:54:16.329Z,44.28
2023-05-04T08:55:16.284Z,42.66
2023-05-04T08:56:16.269Z,42.96
2023-05-04T08:57:16.286Z,41.93
2023-05-04T08:58:16.261Z,43.92
2023-05-04T08:59:16.269Z,44.12
2023-05-04T09:00:16.240Z,45.18
2023-05-04T09:01:16.290Z,44.06
2023-05-04T09:02:16.226Z,43.62
2023-05-04T09:03:16.277Z,43.92
2023-05-04T09:04:16.247Z,43.62
2023-05-04T09:05:16.197Z,45.45
2023-05-04T09:06:16.199Z,43.60
2023-05-04T09:07:16.168Z,41.74
2023-05-04T09:08:16.153Z,40.69
2023-05-04T09:09:16.187Z,39.59
2023-05-04T09:10:16.132Z,39.41
2023-05-04T09:11:16.144Z,41.80
2023-05-04T09:12:16.219Z,41.39
2023-05-04T09:13:16.190Z,39.09
2023-05-04T09:14:16.087Z,40.25
2023-05-04T09:15:16.074Z,40.09
2023-05-04T09:16:16.181Z,42.94
2023-05-04T09:17:16.072Z,43.14
2023-05-04T09:18:16.178Z,43.88
2023-05-04T09:19:16.052Z,43.76
2023-05-04T09:20:16.049Z,43.56
2023-05-04T09:21:16.046Z,42.33
2023-05-04T09:22:16.066Z,44.04
2023-05-04T09:23:16.032Z,41.96
2023-05-04T09:24:16.006Z,44.36
2023-05-04T09:25:15.970Z,44.84
2023-05-04T09:26:15.972Z,43.82
2023-05-04T09:27:16.022Z,43.62
2023-05-04T09:28:15.976Z,42.58
2023-05-04T09:29:15.979Z,44.68
2023-05-04T09:30:15.925Z,44.79
2023-05-04T09:31:15.940Z,43.86
2023-05-04T09:32:15.977Z,44.16
2023-05-04T09:33:15.908Z,43.36
2023-05-04T09:34:15.968Z,44.53
2023-05-04T09:35:29.356Z,47.14
2023-05-04T09:36:15.911Z,47.52
2023-05-04T09:37:15.888Z,45.67
2023-05-04T09:38:15.896Z,42.52
2023-05-04T09:39:15.860Z,42.33
2023-05-04T09:40:15.851Z,43.94
2023-05-04T09:42:28.648Z,44.58
2023-05-04T09:43:29.048Z,42.43
2023-05-04T09:44:29.758Z,40.83
2023-05-04T09:45:29.138Z,41.93
2023-05-04T09:46:29.039Z,41.31
2023-05-04T09:47:28.955Z,41.49
2023-05-04T09:48:29.090Z,41.30
2023-05-04T09:49:29.089Z,40.78
2023-05-04T09:50:28.926Z,40.75
2023-05-04T09:51:28.946Z,40.28
2023-05-04T09:52:28.875Z,40.89
2023-05-04T09:53:28.866Z,39.89
2023-05-04T09:54:28.882Z,40.83
2023-05-04T09:55:28.922Z,40.18
2023-05-04T09:56:28.874Z,38.70
2023-05-04T09:57:28.836Z,38.32
2023-05-04T09:58:28.812Z,39.15
2023-05-04T09:59:28.827Z,39.74
2023-05-04T10:00:28.805Z,39.78
2023-05-04T10:01:29.002Z,41.21
2023-05-04T10:02:28.838Z,40.47
2023-05-04T10:03:28.778Z,40.86
2023-05-04T10:04:28.783Z,41.31
2023-05-04T10:05:28.802Z,40.64
2023-05-04T10:06:28.748Z,39.54
2023-05-04T10:07:28.738Z,40.73
2023-05-04T10:08:28.753Z,40.95
2023-05-04T10:09:28.725Z,38.26
2023-05-04T10:10:28.734Z,38.14
2023-05-04T10:11:28.700Z,40.58
2023-05-04T10:12:28.755Z,41.85
2023-05-04T10:13:28.680Z,40.81
2023-05-04T10:14:28.685Z,40.34
2023-05-04T10:15:28.655Z,39.86
2023-05-04T10:16:28.696Z,42.61
2023-05-04T10:17:28.630Z,40.97
2023-05-04T10:18:28.641Z,41.61
2023-05-04T10:19:28.607Z,42.54
2023-05-04T10:20:28.602Z,43.59
2023-05-04T10:21:28.584Z,43.35
2023-05-04T10:22:28.570Z,42.43
2023-05-04T10:37:30.216Z,42.79
2023-05-04T10:38:31.228Z,41.77
2023-05-04T10:39:31.102Z,42.87
2023-05-04T10:40:31.023Z,39.78
2023-05-04T10:41:31.024Z,37.61
2023-05-04T10:42:31.008Z,39.15
2023-05-04T10:43:30.977Z,41.77
2023-05-04T10:44:30.960Z,39.25
2023-05-04T10:45:31.028Z,39.22
2023-05-04T10:46:30.954Z,37.93
2023-05-04T10:47:30.984Z,38.83
2023-05-04T10:48:30.914Z,40.15
2023-05-04T10:49:30.917Z,39.77
2023-05-04T10:50:30.929Z,39.07
2023-05-04T10:51:39.046Z,40.97
2023-05-04T10:52:30.891Z,38.95
2023-05-04T10:53:30.909Z,37.66
2023-05-04T10:54:30.866Z,37.87
2023-05-04T10:55:30.941Z,39.23
2023-05-04T10:56:30.880Z,39.03
2023-05-04T10:57:31.076Z,36.94
2023-05-04T10:58:31.005Z,39.79
2023-05-04T10:59:30.805Z,41.38
2023-05-04T11:00:30.805Z,42.05
2023-05-04T11:01:30.803Z,39.35
2023-05-04T11:02:33.107Z,38.15
2023-05-04T11:03:31.046Z,39.67
2023-05-04T11:04:30.750Z,41.47
2023-05-04T11:05:30.779Z,39.77
2023-05-04T11:06:30.740Z,41.24
2023-05-04T11:07:30.734Z,41.82
2023-05-04T11:08:30.707Z,38.49
2023-05-04T11:09:30.726Z,37.27
2023-05-04T11:10:30.688Z,37.94
2023-05-04T11:11:30.820Z,35.33
2023-05-04T11:12:30.752Z,35.93
2023-05-04T11:13:30.658Z,36.74
2023-05-04T11:14:30.718Z,35.23
2023-05-04T11:15:30.649Z,36.72
2023-05-04T11:16:30.680Z,37.02
2023-05-04T11:17:30.745Z,36.01
2023-05-04T11:18:30.782Z,35.97
2023-05-04T11:19:30.660Z,33.48
2023-05-04T11:20:30.592Z,35.77
2023-05-04T11:21:30.594Z,35.49
2023-05-04T11:22:30.614Z,33.81
2023-05-04T11:23:30.598Z,35.31
2023-05-04T11:24:30.564Z,34.99
2023-05-04T11:25:30.549Z,34.91
2023-05-04T11:26:30.561Z,34.71
2023-05-04T11:27:30.516Z,35.35
2023-05-04T11:28:30.541Z,36.64
2023-05-04T11:29:30.483Z,36.63
2023-05-04T11:30:30.539Z,37.40
2023-05-04T11:31:30.527Z,35.13
2023-05-04T11:32:30.508Z,35.18
2023-05-04T11:33:30.469Z,35.80
2023-05-04T11:34:30.707Z,35.08
2023-05-04T11:35:30.467Z,34.86
2023-05-04T11:36:30.466Z,36.56
2023-05-04T11:37:30.468Z,36.81
2023-05-04T11:38:30.433Z,39.51
2023-05-04T11:39:30.409Z,37.38
2023-05-04T11:40:30.405Z,36.46
2023-05-04T11:41:30.382Z,36.74
2023-05-04T11:42:30.353Z,37.52
2023-05-04T11:43:30.353Z,39.40
2023-05-04T11:44:30.353Z,40.06
2023-05-04T11:45:30.386Z,36.27
2023-05-04T11:46:30.411Z,36.71
2023-05-04T11:47:30.328Z,37.92
2023-05-04T11:48:30.299Z,40.72
2023-05-04T11:49:30.293Z,37.81
2023-05-04T11:50:30.335Z,37.72
2023-05-04T11:51:30.294Z,38.64
2023-05-04T11:52:30.262Z,40.04
2023-05-04T11:53:30.250Z,38.54
2023-05-04T11:54:30.296Z,37.18
2023-05-04T11:55:30.228Z,39.39
2023-05-04T11:56:30.295Z,40.91
2023-05-04T11:57:30.227Z,40.95
2023-05-04T11:58:30.199Z,41.46
2023-05-04T11:59:30.204Z,41.96
2023-05-04T12:00:30.184Z,43.43
2023-05-04T12:01:30.187Z,42.24
2023-05-04T12:02:30.275Z,42.16
2023-05-04T12:03:35.886Z,41.66
2023-05-04T12:04:30.149Z,42.07
2023-05-04T12:05:30.180Z,43.38
2023-05-04T12:06:30.143Z,43.48
2023-05-04T12:07:30.118Z,45.08
2023-05-04T12:08:30.119Z,45.48
2023-05-04T12:09:30.088Z,43.88
2023-05-04T12:10:30.103Z,43.10
2023-05-04T12:11:30.059Z,45.80
2023-05-04T12:12:32.277Z,43.19
2023-05-04T12:13:30.046Z,43.72
2023-05-04T12:14:30.030Z,43.04
2023-05-04T12:15:30.091Z,42.83
2023-05-04T12:16:30.042Z,43.66
2023-05-04T12:17:30.159Z,42.38
2023-05-04T12:18:30.014Z,46.49
2023-05-04T12:19:30.023Z,45.57
2023-05-04T12:20:29.994Z,45.97
2023-05-04T12:21:29.964Z,44.46
2023-05-04T12:22:29.952Z,43.44
2023-05-04T12:23:29.949Z,42.63
2023-05-04T12:24:29.943Z,43.02
2023-05-04T12:25:29.968Z,44.60
2023-05-04T12:26:29.924Z,43.27
2023-05-04T12:27:29.920Z,40.31
2023-05-04T12:28:29.909Z,41.71
2023-05-04T12:29:29.891Z,44.52
2023-05-04T12:30:29.870Z,42.82
2023-05-04T12:31:29.897Z,42.86
2023-05-04T12:32:29.939Z,42.55
2023-05-04T12:33:29.868Z,42.94
2023-05-04T12:34:29.834Z,44.62
2023-05-04T12:35:29.831Z,44.02
2023-05-04T12:36:29.821Z,42.02
2023-05-04T12:37:29.800Z,42.80
2023-05-04T12:38:29.927Z,41.99
2023-05-04T12:39:29.792Z,43.42
2023-05-04T12:40:29.829Z,40.43
2023-05-04T12:41:29.753Z,42.03
2023-05-04T12:42:29.738Z,41.65
2023-05-04T12:43:29.793Z,41.05
2023-05-04T12:44:29.718Z,41.25
2023-05-04T12:45:29.724Z,42.33
2023-05-04T12:46:29.825Z,41.53
2023-05-04T12:47:29.800Z,42.82
2023-05-04T12:48:29.692Z,41.71
2023-05-04T12:49:29.667Z,41.33
2023-05-04T12:50:29.662Z,44.82
2023-05-04T12:51:29.648Z,42.74
2023-05-04T12:52:29.704Z,43.34
2023-05-04T12:53:29.622Z,45.84
2023-05-04T12:54:29.612Z,41.82
2023-05-04T12:55:29.601Z,42.54
2023-05-04T12:56:29.590Z,42.74
2023-05-04T12:57:29.600Z,43.92
2023-05-04T12:58:29.575Z,44.92
2023-05-04T12:59:29.572Z,43.24
2023-05-04T13:00:29.651Z,43.54
2023-05-04T13:01:29.652Z,41.13
2023-05-04T13:02:29.602Z,43.22
2023-05-04T13:03:29.578Z,43.10
2023-05-04T13:04:29.515Z,41.11
2023-05-04T13:05:29.520Z,43.40
2023-05-04T13:06:29.506Z,43.60
2023-05-04T13:07:29.489Z,42.10
2023-05-04T13:08:29.481Z,43.10
2023-05-04T13:09:29.502Z,42.99
2023-05-04T13:10:29.458Z,42.30
2023-05-04T13:11:29.468Z,42.80
2023-05-04T13:12:29.467Z,43.50
2023-05-04T13:13:29.576Z,41.53
2023-05-04T13:14:29.392Z,43.04
2023-05-04T13:15:29.433Z,43.54
2023-05-04T13:16:29.502Z,41.74
2023-05-04T13:17:29.507Z,42.24
2023-05-04T13:18:29.379Z,40.85
2023-05-04T13:19:29.352Z,40.75
2023-05-04T13:20:29.603Z,41.75
2023-05-04T13:21:29.338Z,43.16
2023-05-04T13:22:29.328Z,41.75
2023-05-04T13:23:29.324Z,43.06
2023-05-04T13:24:29.333Z,45.06
2023-05-04T13:25:29.324Z,44.95
2023-05-04T13:26:29.308Z,44.44
2023-05-04T13:27:29.277Z,42.33
2023-05-04T13:28:29.269Z,42.83
2023-05-04T13:29:29.269Z,42.03
2023-05-04T13:30:29.272Z,41.83
2023-05-04T13:31:29.336Z,43.94
2023-05-04T13:32:29.325Z,42.54